Time;durP1;ratioP1;P1;durP2;ratioP2;P2;SDS_P1;SDS_P2;PMS_P1;PMS_P2;Temp;Humidity;BMP_temperature;BMP_pressure;BME280_temperature;BME280_humidity;BME280_pressure;Samples;Min_cycle;Max_cycle;Signal;HPM_P1;HPM_P2
2021/07/02 00:00:34;;;;;;;;;;;13.30;99.90;;;;;;5052806;28;19919;-69
2021/07/02 00:03:01;;;;;;;;;;;13.30;99.90;;;;;;5052764;28;20311;-69
2021/07/02 00:05:28;;;;;;;;;;;13.30;99.90;;;;;;5055258;28;19909;-69
2021/07/02 00:07:54;;;;;;;;;;;13.40;99.90;;;;;;5056684;28;19920;-69
2021/07/02 00:10:21;;;;;;;;;;;13.50;99.90;;;;;;5056894;28;19967;-69
2021/07/02 00:12:48;;;;;;;;;;;13.50;99.90;;;;;;5056458;28;19993;-69
2021/07/02 00:15:14;;;;;;;;;;;13.50;99.90;;;;;;5056432;28;19971;-69
2021/07/02 00:17:41;;;;;;;;;;;13.50;99.90;;;;;;5056449;28;19908;-70
2021/07/02 00:20:08;;;;;;;;;;;13.60;99.90;;;;;;5056249;28;19909;-69
2021/07/02 00:22:35;;;;;;;;;;;13.50;99.90;;;;;;5056518;28;19909;-70
2021/07/02 00:25:02;;;;;;;;;;;13.30;99.90;;;;;;5056485;28;19913;-69
2021/07/02 00:27:29;;;;;;;;;;;13.30;99.90;;;;;;5056211;28;20371;-69
2021/07/02 00:29:55;;;;;;;;;;;13.40;99.90;;;;;;5056395;28;19913;-69
2021/07/02 00:32:22;;;;;;;;;;;13.40;99.90;;;;;;5056443;28;20256;-70
2021/07/02 00:34:49;;;;;;;;;;;13.40;99.90;;;;;;5056558;28;19909;-69
2021/07/02 00:37:15;;;;;;;;;;;13.40;99.90;;;;;;5056318;28;19952;-70
2021/07/02 00:39:42;;;;;;;;;;;13.40;99.90;;;;;;5056108;28;20007;-70
2021/07/02 00:42:09;;;;;;;;;;;13.40;99.90;;;;;;5056491;28;19913;-69
2021/07/02 00:44:42;;;;;;;;;;;13.40;99.90;;;;;;5056173;28;19920;-69
2021/07/02 00:47:10;;;;;;;;;;;13.40;99.90;;;;;;5056085;28;19909;-69
2021/07/02 00:49:37;;;;;;;;;;;13.40;99.90;;;;;;5056243;28;19913;-69
2021/07/02 00:52:07;;;;;;;;;;;13.40;99.90;;;;;;5058639;28;19913;-70
2021/07/02 00:54:34;;;;;;;;;;;13.40;99.90;;;;;;5056447;28;19968;-69
2021/07/02 00:57:02;;;;;;;;;;;13.30;99.90;;;;;;5057719;28;20394;-70
2021/07/02 00:59:29;;;;;;;;;;;13.40;99.90;;;;;;5057455;28;20016;-70
2021/07/02 01:01:56;;;;;;;;;;;13.40;99.90;;;;;;5056071;28;19944;-69
2021/07/02 01:04:24;;;;;;;;;;;13.40;99.90;;;;;;5055819;28;20322;-69
2021/07/02 01:06:54;;;;;;;;;;;13.60;99.90;;;;;;5055700;28;19909;-70
2021/07/02 01:09:24;;;;;;;;;;;13.80;99.90;;;;;;5055735;28;19924;-69
2021/07/02 01:11:51;;;;;;;;;;;14.10;99.90;;;;;;5055168;28;19992;-70
2021/07/02 01:14:18;;;;;;;;;;;14.10;99.90;;;;;;5055197;28;20346;-70
2021/07/02 01:16:45;;;;;;;;;;;14.20;99.90;;;;;;5054733;28;19947;-70
2021/07/02 01:19:13;;;;;;;;;;;14.50;99.90;;;;;;5055545;28;19908;-70
2021/07/02 01:21:40;;;;;;;;;;;14.60;99.90;;;;;;5055348;28;19909;-70
2021/07/02 01:24:07;;;;;;;;;;;14.60;99.90;;;;;;5055329;28;19916;-70
2021/07/02 01:26:33;;;;;;;;;;;14.60;99.90;;;;;;5055272;28;19948;-70
2021/07/02 01:29:00;;;;;;;;;;;14.60;99.90;;;;;;5054975;28;20003;-69
2021/07/02 01:31:28;;;;;;;;;;;14.60;99.90;;;;;;5055111;28;20268;-69
2021/07/02 01:33:54;;;;;;;;;;;14.50;99.90;;;;;;5054989;28;19913;-70
2021/07/02 01:36:22;;;;;;;;;;;14.50;99.90;;;;;;5055186;28;20355;-70
2021/07/02 01:38:49;;;;;;;;;;;14.50;99.90;;;;;;5055267;28;19916;-70
2021/07/02 01:41:16;;;;;;;;;;;14.40;99.90;;;;;;5054930;28;19909;-69
2021/07/02 01:43:42;;;;;;;;;;;14.40;99.90;;;;;;5054737;28;20425;-69
2021/07/02 01:46:09;;;;;;;;;;;14.40;99.90;;;;;;5054966;28;20238;-70
2021/07/02 01:48:36;;;;;;;;;;;14.40;99.90;;;;;;5054879;28;19909;-69
2021/07/02 01:51:03;;;;;;;;;;;14.40;99.90;;;;;;5054950;28;19936;-70
2021/07/02 01:53:30;;;;;;;;;;;14.50;99.90;;;;;;5054704;28;19909;-70
2021/07/02 01:55:57;;;;;;;;;;;14.60;99.90;;;;;;5054599;28;19909;-70
2021/07/02 01:58:23;;;;;;;;;;;14.70;99.90;;;;;;5054948;28;19909;-70
2021/07/02 02:00:50;;;;;;;;;;;14.70;99.90;;;;;;5054459;28;19909;-69
2021/07/02 02:03:17;;;;;;;;;;;14.70;99.90;;;;;;5054328;28;20011;-70
2021/07/02 02:05:43;;;;;;;;;;;14.70;99.90;;;;;;5054398;28;19999;-70
2021/07/02 02:08:10;;;;;;;;;;;14.70;99.90;;;;;;5054436;28;20352;-70
2021/07/02 02:10:37;;;;;;;;;;;14.70;99.90;;;;;;5054259;28;19908;-70
2021/07/02 02:13:03;;;;;;;;;;;14.80;99.90;;;;;;5054441;28;19917;-69
2021/07/02 02:15:30;;;;;;;;;;;14.80;99.90;;;;;;5054535;28;19973;-69
2021/07/02 02:17:57;;;;;;;;;;;14.80;99.90;;;;;;5054604;28;19917;-70
2021/07/02 02:20:23;;;;;;;;;;;14.90;99.90;;;;;;5054351;28;19916;-70
2021/07/02 02:22:50;;;;;;;;;;;14.80;99.90;;;;;;5054360;28;19932;-69
2021/07/02 02:25:17;;;;;;;;;;;14.90;99.90;;;;;;5054030;28;19909;-69
2021/07/02 02:27:46;;;;;;;;;;;14.90;99.90;;;;;;5053836;28;19953;-69
2021/07/02 02:30:13;;;;;;;;;;;15.00;99.90;;;;;;5054167;28;19909;-69
2021/07/02 02:32:40;;;;;;;;;;;15.00;99.90;;;;;;5054033;28;19913;-68
2021/07/02 02:35:07;;;;;;;;;;;15.10;99.90;;;;;;5054260;28;19920;-69
2021/07/02 02:37:34;;;;;;;;;;;15.00;99.90;;;;;;5053939;28;19912;-69
2021/07/02 02:40:02;;;;;;;;;;;15.10;99.90;;;;;;5054425;28;20355;-69
2021/07/02 02:42:29;;;;;;;;;;;15.10;99.90;;;;;;5052519;28;19909;-70
2021/07/02 02:44:55;;;;;;;;;;;15.20;99.90;;;;;;5053804;28;19956;-69
2021/07/02 02:47:22;;;;;;;;;;;15.20;99.90;;;;;;5053824;28;20342;-69
2021/07/02 02:49:49;;;;;;;;;;;15.30;99.90;;;;;;5053691;28;20000;-69
2021/07/02 02:52:15;;;;;;;;;;;15.30;99.90;;;;;;5053654;28;19962;-69
2021/07/02 02:54:42;;;;;;;;;;;15.30;99.90;;;;;;5053780;28;19909;-69
2021/07/02 02:57:09;;;;;;;;;;;15.30;99.90;;;;;;5053585;28;19913;-69
2021/07/02 02:59:36;;;;;;;;;;;15.50;99.90;;;;;;5053459;28;19947;-70
2021/07/02 03:02:04;;;;;;;;;;;15.60;99.90;;;;;;5053614;28;19952;-69
2021/07/02 03:04:31;;;;;;;;;;;15.60;99.90;;;;;;5053481;28;20009;-70
2021/07/02 03:06:58;;;;;;;;;;;15.80;99.90;;;;;;5053253;28;19948;-70
2021/07/02 03:09:25;;;;;;;;;;;15.80;99.90;;;;;;5053307;28;19959;-70
2021/07/02 03:11:52;;;;;;;;;;;15.90;99.90;;;;;;5052859;28;19916;-70
2021/07/02 03:14:19;;;;;;;;;;;16.00;99.90;;;;;;5051659;28;19970;-69
2021/07/02 03:16:46;;;;;;;;;;;16.00;99.90;;;;;;5053309;28;19909;-68
2021/07/02 03:19:13;;;;;;;;;;;16.00;99.90;;;;;;5053205;28;20043;-68
2021/07/02 03:21:40;;;;;;;;;;;15.90;99.90;;;;;;5053022;28;19912;-68
2021/07/02 03:24:07;;;;;;;;;;;16.00;99.90;;;;;;5052922;28;19941;-68
2021/07/02 03:26:34;;;;;;;;;;;16.10;99.90;;;;;;5053168;28;19909;-69
2021/07/02 03:29:01;;;;;;;;;;;16.20;99.90;;;;;;5053014;28;19909;-69
2021/07/02 03:31:28;;;;;;;;;;;16.20;99.90;;;;;;5053125;28;20337;-69
2021/07/02 03:33:55;;;;;;;;;;;16.30;99.90;;;;;;5053159;28;19957;-68
2021/07/02 03:36:22;;;;;;;;;;;16.30;99.90;;;;;;5053039;28;19962;-69
2021/07/02 03:38:49;;;;;;;;;;;16.20;99.90;;;;;;5048077;28;19917;-69
2021/07/02 03:41:16;;;;;;;;;;;16.20;99.90;;;;;;5051830;28;19909;-69
2021/07/02 03:43:43;;;;;;;;;;;16.30;99.90;;;;;;5070788;28;19923;-69
2021/07/02 03:46:10;;;;;;;;;;;16.40;99.90;;;;;;5071753;28;19912;-70
2021/07/02 03:48:36;;;;;;;;;;;16.40;99.90;;;;;;5072986;28;19916;-70
2021/07/02 03:51:03;;;;;;;;;;;16.40;99.90;;;;;;5072867;28;19909;-70
2021/07/02 03:53:30;;;;;;;;;;;16.60;99.90;;;;;;5072844;28;20008;-70
2021/07/02 03:55:56;;;;;;;;;;;16.70;99.90;;;;;;5072831;28;19909;-69
2021/07/02 03:58:23;;;;;;;;;;;16.90;99.90;;;;;;5072869;28;20275;-69
2021/07/02 04:00:50;;;;;;;;;;;17.10;99.90;;;;;;5072780;28;20340;-69
2021/07/02 04:03:16;;;;;;;;;;;17.20;99.90;;;;;;5072638;28;19920;-69
2021/07/02 04:05:46;;;;;;;;;;;17.10;99.90;;;;;;5057266;28;19928;-70
2021/07/02 04:08:12;;;;;;;;;;;17.00;99.90;;;;;;5052721;28;19996;-69
2021/07/02 04:10:39;;;;;;;;;;;17.00;99.90;;;;;;5052423;28;20381;-70
2021/07/02 04:13:07;;;;;;;;;;;16.90;99.90;;;;;;5052358;28;19908;-69
2021/07/02 04:15:34;;;;;;;;;;;16.80;99.90;;;;;;5052186;28;19909;-70
2021/07/02 04:18:00;;;;;;;;;;;16.70;99.90;;;;;;5052625;28;19913;-69
2021/07/02 04:20:27;;;;;;;;;;;17.10;99.90;;;;;;5052604;28;19913;-69
2021/07/02 04:22:54;;;;;;;;;;;17.40;99.90;;;;;;5052412;28;19944;-69
2021/07/02 04:25:20;;;;;;;;;;;17.50;99.90;;;;;;5053902;28;19916;-70
2021/07/02 04:27:47;;;;;;;;;;;17.50;99.90;;;;;;5060297;28;20240;-69
2021/07/02 04:30:14;;;;;;;;;;;17.50;99.90;;;;;;5047576;28;20316;-69
2021/07/02 04:32:41;;;;;;;;;;;17.50;99.90;;;;;;5050848;28;19909;-68
2021/07/02 04:35:09;;;;;;;;;;;17.60;99.90;;;;;;5051614;28;19959;-69
2021/07/02 04:37:37;;;;;;;;;;;17.40;99.90;;;;;;5060071;28;19908;-69
2021/07/02 04:40:04;;;;;;;;;;;17.40;99.90;;;;;;5072160;28;19908;-69
2021/07/02 04:42:30;;;;;;;;;;;17.30;99.90;;;;;;5072470;28;20324;-69
2021/07/02 04:44:57;;;;;;;;;;;17.20;99.90;;;;;;5072175;28;19917;-68
2021/07/02 04:47:24;;;;;;;;;;;17.10;99.90;;;;;;5072400;28;20022;-68
2021/07/02 04:49:50;;;;;;;;;;;17.00;99.90;;;;;;5066851;28;20007;-69
2021/07/02 04:52:17;;;;;;;;;;;17.10;99.90;;;;;;5070584;28;19917;-68
2021/07/02 04:54:44;;;;;;;;;;;17.20;99.90;;;;;;5075878;28;19909;-69
2021/07/02 04:57:10;;;;;;;;;;;17.00;99.90;;;;;;5075677;28;19994;-69
2021/07/02 04:59:39;;;;;;;;;;;17.10;99.90;;;;;;5075431;28;19966;-69
2021/07/02 05:02:07;;;;;;;;;;;17.00;99.90;;;;;;5075861;28;19936;-69
2021/07/02 05:04:34;;;;;;;;;;;17.10;99.90;;;;;;5075746;28;19956;-70
2021/07/02 05:07:02;;;;;;;;;;;17.10;99.90;;;;;;5075312;28;19954;-69
2021/07/02 05:09:28;;;;;;;;;;;17.00;99.90;;;;;;5075024;28;20003;-69
2021/07/02 05:11:55;;;;;;;;;;;16.90;99.90;;;;;;5075550;28;19970;-70
2021/07/02 05:14:22;;;;;;;;;;;17.10;99.90;;;;;;5075514;28;19920;-69
2021/07/02 05:16:49;;;;;;;;;;;17.10;99.90;;;;;;5067053;28;19955;-69
2021/07/02 05:19:15;;;;;;;;;;;17.10;99.90;;;;;;5055529;28;19912;-69
2021/07/02 05:21:42;;;;;;;;;;;16.90;99.90;;;;;;5055113;28;19909;-69
2021/07/02 05:24:09;;;;;;;;;;;16.90;99.90;;;;;;5055300;28;20004;-69
2021/07/02 05:26:36;;;;;;;;;;;16.80;99.90;;;;;;5055182;28;19909;-70
2021/07/02 05:29:02;;;;;;;;;;;16.70;99.90;;;;;;5055642;28;19952;-69
2021/07/02 05:31:29;;;;;;;;;;;16.60;99.90;;;;;;5055337;28;19920;-69
2021/07/02 05:33:56;;;;;;;;;;;16.60;99.90;;;;;;5055246;28;19909;-69
2021/07/02 05:36:23;;;;;;;;;;;16.60;99.90;;;;;;5055014;28;20271;-69
2021/07/02 05:38:49;;;;;;;;;;;16.90;99.90;;;;;;5055019;28;19908;-69
2021/07/02 05:41:16;;;;;;;;;;;16.80;99.90;;;;;;5055189;28;20370;-69
2021/07/02 05:43:43;;;;;;;;;;;16.80;99.90;;;;;;5054699;28;20383;-70
2021/07/02 05:46:09;;;;;;;;;;;16.70;99.90;;;;;;5054908;28;19974;-69
2021/07/02 05:48:36;;;;;;;;;;;16.70;99.90;;;;;;5054847;28;19991;-69
2021/07/02 05:51:03;;;;;;;;;;;16.80;99.90;;;;;;5054985;28;19921;-69
2021/07/02 05:53:30;;;;;;;;;;;16.80;99.90;;;;;;5054851;28;19916;-69
2021/07/02 05:55:57;;;;;;;;;;;16.70;99.90;;;;;;5054716;28;19909;-69
2021/07/02 05:58:24;;;;;;;;;;;16.60;99.90;;;;;;5054912;28;19909;-69
2021/07/02 06:00:50;;;;;;;;;;;16.60;99.90;;;;;;5054716;28;19909;-69
2021/07/02 06:03:17;;;;;;;;;;;16.60;99.90;;;;;;5054449;28;20421;-70
2021/07/02 06:05:44;;;;;;;;;;;16.50;99.90;;;;;;5054534;28;20390;-70
2021/07/02 06:08:14;;;;;;;;;;;16.50;99.90;;;;;;5054785;28;19908;-70
2021/07/02 06:10:40;;;;;;;;;;;16.40;99.90;;;;;;5054533;28;19909;-70
2021/07/02 06:13:07;;;;;;;;;;;16.40;99.90;;;;;;5054541;28;20004;-70
2021/07/02 06:15:41;;;;;;;;;;;16.40;99.90;;;;;;5053645;28;19917;-69
2021/07/02 06:18:08;;;;;;;;;;;16.40;99.90;;;;;;5071397;28;19985;-70
2021/07/02 06:20:42;;;;;;;;;;;16.30;99.90;;;;;;5074332;28;19916;-70
2021/07/02 06:23:09;;;;;;;;;;;16.20;99.90;;;;;;5073679;28;19912;-70
2021/07/02 06:25:35;;;;;;;;;;;16.20;99.90;;;;;;5073917;28;19912;-70
2021/07/02 06:28:02;;;;;;;;;;;16.10;99.90;;;;;;5073984;28;19908;-70
2021/07/02 06:30:29;;;;;;;;;;;16.10;99.90;;;;;;5074319;28;19908;-70
2021/07/02 06:32:55;;;;;;;;;;;16.00;99.90;;;;;;5073588;28;19931;-69
2021/07/02 06:35:22;;;;;;;;;;;16.00;99.90;;;;;;5074219;28;19908;-69
2021/07/02 06:37:49;;;;;;;;;;;16.10;99.90;;;;;;5073671;28;19915;-69
2021/07/02 06:40:17;;;;;;;;;;;16.00;99.90;;;;;;5073981;28;20279;-69
2021/07/02 06:42:43;;;;;;;;;;;16.00;99.90;;;;;;5073884;28;20251;-70
2021/07/02 06:45:12;;;;;;;;;;;16.00;99.90;;;;;;5073919;28;19939;-70
2021/07/02 06:48:04;;;;;;;;;;;16.00;99.90;;;;;;5073671;28;19912;-69
2021/07/02 06:50:35;;;;;;;;;;;16.00;99.90;;;;;;5070135;28;19917;-69
2021/07/02 06:53:03;;;;;;;;;;;15.90;99.90;;;;;;5073799;28;19908;-69
2021/07/02 06:55:30;;;;;;;;;;;15.80;99.90;;;;;;5073718;28;20343;-69
2021/07/02 06:57:57;;;;;;;;;;;15.80;99.90;;;;;;5073892;28;19915;-69
2021/07/02 07:00:24;;;;;;;;;;;15.80;99.90;;;;;;5073460;28;19908;-69
2021/07/02 07:02:51;;;;;;;;;;;15.70;99.90;;;;;;5073615;28;20272;-70
2021/07/02 07:05:18;;;;;;;;;;;15.70;99.90;;;;;;5073684;28;20388;-69
2021/07/02 07:07:45;;;;;;;;;;;15.60;99.90;;;;;;5073264;28;20001;-69
2021/07/02 07:10:12;;;;;;;;;;;15.60;99.90;;;;;;5073518;28;19908;-69
2021/07/02 07:12:41;;;;;;;;;;;15.50;99.90;;;;;;5073369;28;19916;-69
2021/07/02 07:15:08;;;;;;;;;;;15.50;99.90;;;;;;5072829;28;20011;-69
2021/07/02 07:17:35;;;;;;;;;;;15.40;99.90;;;;;;5073222;28;19920;-69
2021/07/02 07:20:05;;;;;;;;;;;15.30;99.90;;;;;;5073143;28;20188;-70
2021/07/02 07:22:32;;;;;;;;;;;15.20;99.90;;;;;;5073905;28;19947;-69
2021/07/02 07:24:59;;;;;;;;;;;15.20;99.90;;;;;;5073587;28;19924;-69
2021/07/02 07:27:25;;;;;;;;;;;15.20;99.90;;;;;;5073576;28;19917;-69
2021/07/02 07:29:52;;;;;;;;;;;15.20;99.90;;;;;;5073189;28;19908;-69
2021/07/02 07:32:19;;;;;;;;;;;15.10;99.90;;;;;;5066115;28;19908;-69
2021/07/02 07:37:17;;;;;;;;;;;15.20;99.90;;;;;;5073144;28;20006;-68
2021/07/02 07:39:44;;;;;;;;;;;15.30;99.90;;;;;;5071724;28;20422;-69
2021/07/02 07:42:10;;;;;;;;;;;15.20;99.90;;;;;;5070764;28;19916;-69
2021/07/02 07:44:37;;;;;;;;;;;15.20;99.90;;;;;;5071025;28;19920;-69
2021/07/02 07:47:04;;;;;;;;;;;15.20;99.90;;;;;;5070960;28;19912;-69
2021/07/02 07:49:30;;;;;;;;;;;15.10;99.90;;;;;;5069384;28;19909;-69
2021/07/02 07:52:10;;;;;;;;;;;15.10;99.90;;;;;;5071101;28;19908;-69
2021/07/02 07:54:38;;;;;;;;;;;15.00;99.90;;;;;;5070263;28;20282;-69
2021/07/02 07:57:05;;;;;;;;;;;15.00;99.90;;;;;;5070906;28;19924;-69
2021/07/02 07:59:33;;;;;;;;;;;15.00;99.90;;;;;;5070822;28;19957;-69
2021/07/02 08:02:00;;;;;;;;;;;15.00;99.90;;;;;;5070997;28;20016;-69
2021/07/02 08:04:26;;;;;;;;;;;14.90;99.90;;;;;;5070932;28;19967;-69
2021/07/02 08:06:53;;;;;;;;;;;14.90;99.90;;;;;;5070412;28;19908;-68
2021/07/02 08:09:20;;;;;;;;;;;14.90;99.90;;;;;;5070606;28;19913;-70
2021/07/02 08:11:47;;;;;;;;;;;14.90;99.90;;;;;;5070423;28;19919;-70
2021/07/02 08:14:15;;;;;;;;;;;15.00;99.90;;;;;;5065395;28;20268;-70
2021/07/02 08:16:42;;;;;;;;;;;14.90;99.90;;;;;;5070652;28;19913;-70
2021/07/02 08:19:09;;;;;;;;;;;14.80;99.90;;;;;;5070126;28;20352;-70
2021/07/02 08:21:35;;;;;;;;;;;14.80;99.90;;;;;;5068815;28;20329;-70
2021/07/02 08:24:02;;;;;;;;;;;14.80;99.90;;;;;;5070122;28;19925;-70
2021/07/02 08:26:29;;;;;;;;;;;14.80;99.90;;;;;;5073213;28;19919;-70
2021/07/02 08:31:41;;;;;;;;;;;14.90;99.90;;;;;;5074560;28;19920;-70
2021/07/02 08:34:08;;;;;;;;;;;14.90;99.90;;;;;;5074122;28;20380;-68
2021/07/02 08:36:35;;;;;;;;;;;15.00;99.90;;;;;;5074199;28;19955;-68
2021/07/02 08:39:02;;;;;;;;;;;15.00;99.90;;;;;;5074229;28;20377;-69
2021/07/02 08:41:29;;;;;;;;;;;15.00;99.90;;;;;;5074208;28;20524;-69
2021/07/02 08:43:55;;;;;;;;;;;15.00;99.90;;;;;;5074114;28;19960;-68
2021/07/02 08:46:22;;;;;;;;;;;15.00;99.90;;;;;;5073851;28;19993;-69
2021/07/02 08:48:51;;;;;;;;;;;15.00;99.90;;;;;;5074082;28;19909;-69
2021/07/02 08:51:18;;;;;;;;;;;15.10;99.90;;;;;;5074160;28;19912;-69
2021/07/02 08:53:45;;;;;;;;;;;15.10;99.90;;;;;;5073773;28;20390;-69
2021/07/02 08:56:12;;;;;;;;;;;15.10;99.90;;;;;;5071297;28;20433;-69
2021/07/02 08:58:39;;;;;;;;;;;15.10;99.90;;;;;;5070597;28;19919;-68
2021/07/02 09:01:08;;;;;;;;;;;15.10;99.90;;;;;;5073741;28;19923;-68
2021/07/02 09:03:39;;;;;;;;;;;15.10;99.90;;;;;;5071156;28;19923;-68
2021/07/02 09:06:05;;;;;;;;;;;15.10;99.90;;;;;;5054903;28;20379;-68
2021/07/02 09:08:34;;;;;;;;;;;15.10;99.90;;;;;;5055422;28;19909;-67
2021/07/02 09:11:01;;;;;;;;;;;15.10;99.90;;;;;;5054857;28;20379;-70
2021/07/02 09:13:41;;;;;;;;;;;15.10;99.90;;;;;;5055094;28;19921;-68
2021/07/02 09:16:24;;;;;;;;;;;15.10;99.90;;;;;;5055293;28;19913;-69
2021/07/02 09:18:51;;;;;;;;;;;15.10;99.90;;;;;;5055668;28;19909;-69
2021/07/02 09:21:31;;;;;;;;;;;15.20;99.90;;;;;;5055550;28;19909;-69
2021/07/02 09:23:58;;;;;;;;;;;15.20;99.90;;;;;;5055086;28;20382;-69
2021/07/02 09:26:43;;;;;;;;;;;15.20;99.90;;;;;;5054864;28;19944;-69
2021/07/02 09:29:16;;;;;;;;;;;15.20;99.90;;;;;;5055543;28;19995;-69
2021/07/02 09:31:42;;;;;;;;;;;15.20;99.90;;;;;;5055062;28;19948;-69
2021/07/02 09:34:09;;;;;;;;;;;15.20;99.90;;;;;;5053064;28;19909;-70
2021/07/02 09:36:36;;;;;;;;;;;15.20;99.90;;;;;;5047552;28;19940;-69
2021/07/02 09:39:03;;;;;;;;;;;15.20;99.90;;;;;;5053974;28;20236;-69
2021/07/02 09:41:34;;;;;;;;;;;15.20;99.90;;;;;;5054402;28;20374;-69
2021/07/02 09:44:10;;;;;;;;;;;15.20;99.90;;;;;;5055075;28;19917;-69
2021/07/02 09:46:37;;;;;;;;;;;15.20;99.90;;;;;;5055248;28;19916;-69
2021/07/02 09:49:04;;;;;;;;;;;15.20;99.90;;;;;;5054835;28;20402;-67
2021/07/02 09:51:31;;;;;;;;;;;15.20;99.90;;;;;;5054745;28;20338;-69
2021/07/02 09:54:07;;;;;;;;;;;15.20;99.90;;;;;;5054872;28;19909;-69
2021/07/02 09:56:34;;;;;;;;;;;15.20;99.90;;;;;;5054911;28;20323;-69
2021/07/02 09:59:14;;;;;;;;;;;15.10;99.90;;;;;;5054757;28;20298;-69
2021/07/02 10:01:41;;;;;;;;;;;15.10;99.90;;;;;;5054485;28;19913;-69
2021/07/02 10:04:09;;;;;;;;;;;15.10;99.90;;;;;;5054628;28;19917;-69
2021/07/02 10:06:36;;;;;;;;;;;15.00;99.90;;;;;;5054894;28;19909;-69
2021/07/02 10:09:05;;;;;;;;;;;15.00;99.90;;;;;;5054723;28;20004;-71
2021/07/02 10:11:32;;;;;;;;;;;15.00;99.90;;;;;;5054528;28;19909;-69
2021/07/02 10:13:59;;;;;;;;;;;15.00;99.90;;;;;;5054294;28;20011;-69
2021/07/02 10:16:26;;;;;;;;;;;14.90;99.90;;;;;;5054650;28;19912;-69
2021/07/02 10:19:03;;;;;;;;;;;14.90;99.90;;;;;;5054488;28;20382;-69
2021/07/02 10:21:30;;;;;;;;;;;14.90;99.90;;;;;;5054380;28;19916;-69
2021/07/02 10:23:57;;;;;;;;;;;14.80;99.90;;;;;;5054331;28;20007;-70
2021/07/02 10:26:32;;;;;;;;;;;14.80;99.90;;;;;;5054503;28;20299;-70
2021/07/02 10:29:00;;;;;;;;;;;14.80;99.90;;;;;;5054488;28;19918;-70
2021/07/02 10:31:27;;;;;;;;;;;14.80;99.90;;;;;;5054393;28;19908;-69
2021/07/02 10:33:55;;;;;;;;;;;14.70;99.90;;;;;;5053992;28;20320;-70
2021/07/02 10:36:22;;;;;;;;;;;14.70;99.90;;;;;;5054186;28;19935;-68
2021/07/02 10:38:50;;;;;;;;;;;14.70;99.90;;;;;;5053802;28;19908;-69
2021/07/02 10:41:20;;;;;;;;;;;14.70;99.90;;;;;;5054131;28;19909;-68
2021/07/02 10:44:03;;;;;;;;;;;14.70;99.90;;;;;;5053693;28;20363;-68
2021/07/02 10:46:39;;;;;;;;;;;14.70;99.90;;;;;;5054114;28;20284;-69
2021/07/02 10:49:07;;;;;;;;;;;14.60;99.90;;;;;;5052889;28;19995;-69
2021/07/02 10:51:39;;;;;;;;;;;14.60;99.90;;;;;;5053494;28;19966;-69
2021/07/02 10:54:24;;;;;;;;;;;14.60;99.90;;;;;;5053586;28;20333;-69
2021/07/02 10:56:57;;;;;;;;;;;14.70;99.90;;;;;;5053755;28;19959;-69
2021/07/02 10:59:36;;;;;;;;;;;14.60;99.90;;;;;;5053660;28;19954;-69
2021/07/02 11:02:06;;;;;;;;;;;14.60;99.90;;;;;;5053608;28;19909;-70
2021/07/02 11:04:40;;;;;;;;;;;14.60;99.90;;;;;;5053586;28;19918;-68
2021/07/02 11:07:13;;;;;;;;;;;14.60;99.90;;;;;;5053376;28;19909;-69
2021/07/02 11:09:51;;;;;;;;;;;14.60;99.90;;;;;;5053251;28;19909;-69
2021/07/02 11:12:21;;;;;;;;;;;14.60;99.90;;;;;;5053400;28;19913;-69
2021/07/02 11:14:53;;;;;;;;;;;14.50;99.90;;;;;;5053368;28;19927;-70
2021/07/02 11:17:20;;;;;;;;;;;14.60;99.90;;;;;;5053420;28;19909;-69
2021/07/02 11:19:47;;;;;;;;;;;14.50;99.90;;;;;;5053085;28;19920;-68
2021/07/02 11:22:27;;;;;;;;;;;14.50;99.90;;;;;;5053363;28;20000;-70
2021/07/02 11:25:00;;;;;;;;;;;14.50;99.90;;;;;;5052976;28;19917;-69
2021/07/02 11:27:44;;;;;;;;;;;14.50;99.90;;;;;;5053145;28;19909;-69
2021/07/02 11:30:23;;;;;;;;;;;14.50;99.90;;;;;;5052952;28;19908;-69
2021/07/02 11:32:58;;;;;;;;;;;14.40;99.90;;;;;;5047597;28;19908;-69
2021/07/02 11:35:27;;;;;;;;;;;14.40;99.90;;;;;;5053016;28;20031;-69
2021/07/02 11:38:17;;;;;;;;;;;14.40;99.90;;;;;;5052640;28;19916;-69
2021/07/02 11:40:50;;;;;;;;;;;14.40;99.90;;;;;;5045369;28;19908;-69
2021/07/02 11:43:22;;;;;;;;;;;14.40;99.90;;;;;;5053251;28;20379;-69
2021/07/02 11:45:53;;;;;;;;;;;14.40;99.90;;;;;;5052649;28;19908;-69
2021/07/02 11:48:20;;;;;;;;;;;14.40;99.90;;;;;;5052457;28;19941;-69
2021/07/02 11:51:07;;;;;;;;;;;14.30;99.90;;;;;;5053085;28;19995;-69
2021/07/02 11:53:38;;;;;;;;;;;14.30;99.90;;;;;;5060996;28;19909;-69
2021/07/02 11:56:08;;;;;;;;;;;14.30;99.90;;;;;;5056291;28;20287;-68
2021/07/02 11:58:36;;;;;;;;;;;14.30;99.90;;;;;;5050089;28;19948;-68
2021/07/02 12:01:22;;;;;;;;;;;14.30;99.90;;;;;;5051959;28;19943;-69
2021/07/02 12:03:53;;;;;;;;;;;14.30;99.90;;;;;;5054103;28;20020;-69
2021/07/02 12:06:26;;;;;;;;;;;14.20;99.90;;;;;;5054633;28;20355;-69
2021/07/02 12:08:54;;;;;;;;;;;14.20;99.90;;;;;;5053312;28;19909;-70
2021/07/02 12:11:52;;;;;;;;;;;14.20;99.90;;;;;;5054688;28;19963;-68
2021/07/02 12:14:23;;;;;;;;;;;14.20;99.90;;;;;;5042185;28;19921;-69
2021/07/02 12:16:51;;;;;;;;;;;14.20;99.90;;;;;;5054027;28;19909;-69
2021/07/02 12:19:19;;;;;;;;;;;14.20;99.90;;;;;;5053900;28;19917;-68
2021/07/02 12:21:52;;;;;;;;;;;14.20;99.90;;;;;;5053370;28;20377;-68
2021/07/02 12:24:21;;;;;;;;;;;14.20;99.90;;;;;;5052318;28;20606;-69
2021/07/02 12:26:58;;;;;;;;;;;14.20;99.90;;;;;;5051959;28;20017;-69
2021/07/02 12:29:26;;;;;;;;;;;14.10;99.90;;;;;;5050160;28;20369;-67
2021/07/02 12:31:53;;;;;;;;;;;14.20;99.90;;;;;;5050279;28;19919;-69
2021/07/02 12:34:46;;;;;;;;;;;14.10;99.90;;;;;;5052697;28;19920;-69
2021/07/02 12:37:13;;;;;;;;;;;14.10;99.90;;;;;;5050780;28;20367;-69
2021/07/02 12:39:46;;;;;;;;;;;14.10;99.90;;;;;;5052532;28;19909;-68
2021/07/02 12:42:20;;;;;;;;;;;14.10;99.90;;;;;;5049958;28;19913;-67
2021/07/02 12:44:48;;;;;;;;;;;14.10;99.90;;;;;;5056195;28;20097;-67
2021/07/02 12:47:15;;;;;;;;;;;14.10;99.90;;;;;;5069388;28;19957;-69
2021/07/02 12:49:43;;;;;;;;;;;14.10;99.90;;;;;;5063101;28;20004;-69
2021/07/02 12:54:49;;;;;;;;;;;14.00;99.90;;;;;;5052481;28;19986;-69
2021/07/02 12:57:20;;;;;;;;;;;14.00;99.90;;;;;;5052922;28;20279;-69
2021/07/02 12:59:48;;;;;;;;;;;14.00;99.90;;;;;;5052215;28;19920;-68
2021/07/02 13:02:24;;;;;;;;;;;14.00;99.90;;;;;;5049256;28;20375;-67
2021/07/02 13:04:51;;;;;;;;;;;14.00;99.90;;;;;;5051324;28;19921;-68
2021/07/02 13:07:17;;;;;;;;;;;14.00;99.90;;;;;;5052586;28;19983;-67
2021/07/02 13:09:44;;;;;;;;;;;14.00;99.90;;;;;;5047443;28;20340;-68
2021/07/02 13:12:12;;;;;;;;;;;14.00;99.90;;;;;;5051757;28;19909;-67
2021/07/02 13:14:44;;;;;;;;;;;14.00;99.90;;;;;;5044640;28;19931;-67
2021/07/02 13:17:11;;;;;;;;;;;14.00;99.90;;;;;;5051973;28;19908;-68
2021/07/02 13:19:38;;;;;;;;;;;13.90;99.90;;;;;;5052545;28;19920;-67
2021/07/02 13:22:30;;;;;;;;;;;13.90;99.90;;;;;;5048985;28;20003;-67
2021/07/02 13:25:04;;;;;;;;;;;13.90;99.90;;;;;;5049968;28;19925;-67
2021/07/02 13:27:31;;;;;;;;;;;13.90;99.90;;;;;;5052428;28;19920;-67
2021/07/02 13:30:05;;;;;;;;;;;13.90;99.90;;;;;;5052103;28;19958;-67
2021/07/02 13:32:32;;;;;;;;;;;13.90;99.90;;;;;;5048922;28;19963;-68
2021/07/02 13:34:58;;;;;;;;;;;13.90;99.90;;;;;;5052602;28;19909;-67
2021/07/02 13:37:29;;;;;;;;;;;13.90;99.90;;;;;;5051804;28;19917;-68
2021/07/02 13:39:56;;;;;;;;;;;13.90;99.90;;;;;;5051897;28;19912;-67
2021/07/02 13:42:25;;;;;;;;;;;13.90;99.90;;;;;;5058806;28;20003;-67
2021/07/02 13:44:57;;;;;;;;;;;13.80;99.90;;;;;;5051860;28;19920;-67
2021/07/02 13:47:27;;;;;;;;;;;13.80;99.90;;;;;;5052066;28;19970;-67
2021/07/02 13:49:54;;;;;;;;;;;13.80;99.90;;;;;;5051802;28;19909;-68
2021/07/02 13:52:21;;;;;;;;;;;13.70;99.90;;;;;;5047952;28;19909;-69
2021/07/02 13:54:48;;;;;;;;;;;13.70;99.90;;;;;;5051568;28;19916;-69
2021/07/02 13:57:16;;;;;;;;;;;13.60;99.90;;;;;;5051698;28;19965;-68
2021/07/02 13:59:42;;;;;;;;;;;13.60;99.90;;;;;;5050532;28;19913;-67
2021/07/02 14:02:09;;;;;;;;;;;13.60;99.90;;;;;;5052225;28;19915;-69
2021/07/02 14:04:36;;;;;;;;;;;13.60;99.90;;;;;;5052070;28;19916;-69
2021/07/02 14:07:03;;;;;;;;;;;13.50;99.90;;;;;;5051789;28;20007;-69
2021/07/02 14:09:30;;;;;;;;;;;13.50;99.90;;;;;;5050824;28;19994;-69
2021/07/02 14:11:56;;;;;;;;;;;13.50;99.90;;;;;;5051653;28;19996;-68
2021/07/02 14:14:23;;;;;;;;;;;13.50;99.90;;;;;;5046898;28;19971;-68
2021/07/02 14:16:50;;;;;;;;;;;13.50;99.90;;;;;;5050921;28;19909;-68
2021/07/02 14:19:17;;;;;;;;;;;13.50;99.90;;;;;;5043397;28;20008;-69
2021/07/02 14:21:44;;;;;;;;;;;13.50;99.90;;;;;;5050666;28;19915;-68
2021/07/02 14:24:11;;;;;;;;;;;13.50;99.90;;;;;;5057726;28;19943;-68
2021/07/02 14:26:38;;;;;;;;;;;13.40;99.90;;;;;;5071995;28;19909;-68
2021/07/02 14:29:06;;;;;;;;;;;13.40;99.90;;;;;;5071872;28;19956;-69
2021/07/02 14:31:32;;;;;;;;;;;13.40;99.90;;;;;;5068130;28;19913;-67